EmailTwitter


Surface observations / Quebec / CYUL (71627)

Regions: Quebec | Canada | USA | Europe | France | UK | Elsewhere
Station
Display
Info & Location for CYUL (71627) | Help decoding METAR

Weather Conditions observed on 2019/11/15 at 21:24 UTC at MONTREAL INTL A, QB (CYUL)

Sky conditions: variable clouds.

Temperature: 0.0 Celsius.

Dewpoint: -7.0 Celsius.

Relative Humidity: 59%

Windchill Factor: -6.

Windchill Factor (Gusts): -8.

Winds: West-northwest at 24 km/h or 13 knots.

Gust: 43 km/h or 23 knots.

Mean Sea level Pressure: 101.73 kilopascals.

Altimeter Setting (QNH): 101.69 kilopascals or 30.03 inches of mercury.

Horizontal visibility: 15.00 statute miles or 24.00 kilometers.

Coded METAR:

CYUL 152124Z 29013G23KT 15SM FEW045 SCT062 SCT085 BKN170 M00/M07 A3003 RMK

SC1SC2AC1AS1 SLP173=